createdAt,value
2019-02-22T00:00:51.925Z,82.89
2019-02-22T00:03:19.681Z,83.27
2019-02-22T00:05:47.535Z,83.67
2019-02-22T00:08:15.277Z,85.53
2019-02-22T00:10:43.200Z,86.03
2019-02-22T00:13:11.011Z,86.07
2019-02-22T00:15:38.969Z,86.81
2019-02-22T00:18:06.748Z,87.00
2019-02-22T00:20:34.535Z,86.98
2019-02-22T00:23:02.348Z,87.07
2019-02-22T00:25:30.297Z,86.63
2019-02-22T00:27:58.049Z,86.54
2019-02-22T00:30:26.007Z,86.28
2019-02-22T00:32:53.789Z,86.26
2019-02-22T00:35:21.660Z,86.45
2019-02-22T00:37:49.601Z,86.45
2019-02-22T00:40:17.319Z,86.68
2019-02-22T00:42:45.352Z,86.72
2019-02-22T00:45:13.103Z,86.29
2019-02-22T00:47:40.835Z,86.46
2019-02-22T00:50:08.607Z,87.04
2019-02-22T00:52:36.539Z,87.73
2019-02-22T00:55:04.537Z,87.52
2019-02-22T00:57:32.442Z,87.42
2019-02-22T01:00:00.357Z,87.65
2019-02-22T01:02:28.445Z,87.83
2019-02-22T01:04:56.179Z,87.81
2019-02-22T01:07:23.948Z,87.76
2019-02-22T01:09:51.711Z,87.53
2019-02-22T01:12:19.483Z,87.70
2019-02-22T01:14:47.266Z,87.79
2019-02-22T01:17:15.196Z,88.21
2019-02-22T01:19:42.942Z,87.87
2019-02-22T01:22:10.888Z,87.71
2019-02-22T01:24:38.664Z,87.83
2019-02-22T01:27:06.616Z,87.98
2019-02-22T01:29:34.405Z,88.46
2019-02-22T01:32:02.391Z,87.71
2019-02-22T01:34:30.189Z,88.30
2019-02-22T01:36:58.010Z,88.46
2019-02-22T01:39:25.799Z,88.20
2019-02-22T01:41:53.753Z,88.20
2019-02-22T01:44:22.055Z,88.40
2019-02-22T01:46:50.031Z,87.77
2019-02-22T01:49:17.935Z,87.18
2019-02-22T01:51:45.927Z,86.88
2019-02-22T01:54:13.675Z,87.15
2019-02-22T01:56:41.499Z,87.78
2019-02-22T01:59:09.249Z,87.63
2019-02-22T02:01:37.456Z,87.28
2019-02-22T02:04:05.238Z,86.99
2019-02-22T02:06:33.199Z,87.22
2019-02-22T02:09:00.929Z,87.83
2019-02-22T02:11:28.869Z,87.25
2019-02-22T02:13:56.860Z,86.90
2019-02-22T02:16:24.652Z,87.41
2019-02-22T02:18:52.606Z,88.43
2019-02-22T02:21:20.361Z,88.35
2019-02-22T02:23:48.108Z,88.74
2019-02-22T02:26:16.098Z,88.56
2019-02-22T02:28:44.013Z,88.11
2019-02-22T02:31:11.932Z,88.54
2019-02-22T02:33:39.891Z,87.58
2019-02-22T02:36:07.675Z,88.30
2019-02-22T02:38:35.596Z,88.40
2019-02-22T02:41:08.438Z,88.43
2019-02-22T02:43:33.158Z,88.08
2019-02-22T02:46:00.961Z,88.74
2019-02-22T02:48:28.718Z,87.77
2019-02-22T02:50:56.543Z,87.12
2019-02-22T02:53:24.483Z,87.74
2019-02-22T02:55:52.216Z,87.55
2019-02-22T02:58:20.186Z,87.61
2019-02-22T03:00:47.935Z,87.91
2019-02-22T03:03:15.887Z,86.95
2019-02-22T03:06:01.652Z,86.90
2019-02-22T03:08:32.948Z,87.18
2019-02-22T03:11:00.701Z,86.99
2019-02-22T03:13:28.768Z,87.19
2019-02-22T03:15:56.530Z,87.86
2019-02-22T03:18:24.288Z,88.33
2019-02-22T03:20:52.032Z,88.55
2019-02-22T03:23:20.000Z,88.52
2019-02-22T03:25:47.986Z,88.39
2019-02-22T03:28:15.907Z,88.23
2019-02-22T03:30:43.655Z,89.15
2019-02-22T03:33:11.473Z,89.26
2019-02-22T03:35:39.266Z,89.80
2019-02-22T03:38:07.038Z,89.75
2019-02-22T03:40:34.800Z,88.96
2019-02-22T03:43:02.610Z,89.42
2019-02-22T03:45:30.358Z,89.57
2019-02-22T03:47:58.298Z,89.43
2019-02-22T03:50:26.112Z,89.55
2019-02-22T03:53:08.828Z,89.90
2019-02-22T03:55:36.754Z,90.02
2019-02-22T03:58:04.698Z,90.52
2019-02-22T04:00:32.681Z,91.45
2019-02-22T04:03:00.597Z,91.95
2019-02-22T04:05:28.392Z,93.12
2019-02-22T04:07:56.390Z,93.22
2019-02-22T04:10:24.299Z,93.75
2019-02-22T04:12:52.079Z,94.66
2019-02-22T04:15:19.840Z,95.36
2019-02-22T04:17:47.630Z,96.04
2019-02-22T04:20:15.373Z,96.54
2019-02-22T04:22:44.337Z,96.66
2019-02-22T04:25:12.407Z,97.12
2019-02-22T04:27:40.369Z,97.21
2019-02-22T04:30:08.701Z,97.28
2019-02-22T04:32:36.491Z,97.72
2019-02-22T04:35:04.636Z,98.07
2019-02-22T04:37:32.453Z,97.88
2019-02-22T04:40:00.441Z,97.70
2019-02-22T04:42:28.302Z,96.65
2019-02-22T04:44:56.035Z,96.31
2019-02-22T04:47:23.802Z,96.04
2019-02-22T04:49:51.574Z,96.19
2019-02-22T04:52:19.337Z,96.30
2019-02-22T04:54:47.249Z,95.58
2019-02-22T04:57:15.035Z,95.26
2019-02-22T04:59:42.950Z,95.44
2019-02-22T05:02:10.727Z,95.42
2019-02-22T05:04:38.637Z,95.33
2019-02-22T05:07:06.425Z,95.02
2019-02-22T05:09:34.303Z,94.27
2019-02-22T05:12:10.353Z,93.86
2019-02-22T05:14:31.747Z,94.00
2019-02-22T05:16:59.561Z,93.36
2019-02-22T05:19:27.364Z,94.34
2019-02-22T05:21:55.120Z,94.54
2019-02-22T05:24:23.093Z,95.07
2019-02-22T05:26:50.863Z,95.15
2019-02-22T05:29:18.795Z,94.71
2019-02-22T05:31:46.751Z,94.29
2019-02-22T05:34:14.473Z,94.16
2019-02-22T05:36:44.254Z,94.19
2019-02-22T05:39:19.097Z,94.41
2019-02-22T05:41:44.409Z,94.14
2019-02-22T05:44:12.392Z,93.79
2019-02-22T05:46:40.159Z,93.56
2019-02-22T05:49:08.131Z,94.12
2019-02-22T05:51:36.030Z,94.12
2019-02-22T05:54:03.788Z,93.74
2019-02-22T05:56:31.687Z,93.63
2019-02-22T05:58:59.449Z,93.18
2019-02-22T06:01:27.210Z,93.95
2019-02-22T06:03:54.972Z,93.76
2019-02-22T06:06:22.740Z,93.21
2019-02-22T06:08:50.528Z,92.99
2019-02-22T06:11:18.455Z,93.43
2019-02-22T06:13:46.235Z,93.32
2019-02-22T06:16:13.977Z,92.95
2019-02-22T06:18:41.797Z,93.08
2019-02-22T06:21:09.591Z,93.75
2019-02-22T06:23:37.377Z,93.48
2019-02-22T06:26:05.123Z,93.43
2019-02-22T06:28:32.879Z,93.31
2019-02-22T06:31:00.809Z,93.35
2019-02-22T06:33:28.583Z,93.48
2019-02-22T06:35:56.394Z,93.85
2019-02-22T06:38:24.207Z,93.61
2019-02-22T06:40:52.200Z,93.23
2019-02-22T06:43:19.919Z,93.17
2019-02-22T06:45:48.133Z,92.56
2019-02-22T06:48:15.927Z,92.27
2019-02-22T06:50:43.687Z,92.11
2019-02-22T06:53:11.473Z,92.13
2019-02-22T06:55:39.273Z,92.05
2019-02-22T06:58:07.362Z,92.33
2019-02-22T07:00:35.346Z,91.98
2019-02-22T07:03:03.092Z,91.60
2019-02-22T07:05:30.862Z,91.16
2019-02-22T07:07:58.854Z,90.88
2019-02-22T07:10:26.835Z,90.52
2019-02-22T07:12:59.007Z,90.50
2019-02-22T07:15:26.808Z,90.04
2019-02-22T07:17:54.551Z,89.87
2019-02-22T07:20:22.342Z,89.52
2019-02-22T07:22:50.123Z,89.25
2019-02-22T07:25:17.953Z,89.43
2019-02-22T07:27:45.805Z,90.24
2019-02-22T07:30:13.680Z,90.04
2019-02-22T07:32:41.755Z,90.42
2019-02-22T07:35:10.004Z,89.49
2019-02-22T07:37:37.796Z,89.07
2019-02-22T07:40:05.905Z,88.28
2019-02-22T07:42:33.667Z,88.67
2019-02-22T07:45:01.445Z,88.77
2019-02-22T07:47:29.376Z,88.50
2019-02-22T07:49:57.195Z,88.38
2019-02-22T07:52:25.066Z,87.84
2019-02-22T07:54:52.891Z,88.36
2019-02-22T07:57:20.894Z,88.30
2019-02-22T07:59:48.623Z,88.98
2019-02-22T08:02:16.589Z,88.64
2019-02-22T08:04:44.384Z,89.29
2019-02-22T08:07:12.377Z,89.52
2019-02-22T08:09:43.991Z,88.75
2019-02-22T08:12:12.080Z,88.05
2019-02-22T08:14:39.911Z,86.70
2019-02-22T08:17:07.715Z,85.72
2019-02-22T08:19:35.483Z,86.43
2019-02-22T08:22:03.698Z,86.55
2019-02-22T08:24:31.495Z,86.24
2019-02-22T08:26:59.269Z,85.65
2019-02-22T08:29:27.289Z,84.61
2019-02-22T08:31:55.098Z,84.20
2019-02-22T08:34:22.828Z,84.23
2019-02-22T08:36:50.596Z,82.32
2019-02-22T08:39:18.355Z,80.74
2019-02-22T08:41:46.153Z,81.01
2019-02-22T08:44:13.961Z,81.56
2019-02-22T08:46:41.764Z,81.42
2019-02-22T08:49:09.519Z,81.36
2019-02-22T08:51:37.359Z,81.39
2019-02-22T08:54:05.528Z,81.47
2019-02-22T08:56:33.325Z,81.71
2019-02-22T08:59:01.075Z,82.32
2019-02-22T09:01:28.826Z,82.12
2019-02-22T09:03:56.557Z,81.89
2019-02-22T09:06:24.408Z,81.04
2019-02-22T09:08:52.215Z,80.85
2019-02-22T09:11:20.042Z,80.90
2019-02-22T09:13:48.051Z,80.58
2019-02-22T09:16:15.932Z,81.05
2019-02-22T09:18:45.281Z,81.27
2019-02-22T09:21:13.126Z,80.90
2019-02-22T09:23:40.877Z,79.58
2019-02-22T09:26:08.702Z,79.47
2019-02-22T09:28:36.528Z,79.78
2019-02-22T09:31:04.309Z,79.41
2019-02-22T09:33:32.198Z,77.54
2019-02-22T09:35:59.968Z,76.91
2019-02-22T09:38:27.744Z,76.15
2019-02-22T09:40:55.534Z,75.09
2019-02-22T09:43:23.259Z,73.84
2019-02-22T09:45:51.046Z,72.44
2019-02-22T09:48:18.809Z,72.23
2019-02-22T09:50:46.571Z,73.17
2019-02-22T09:53:14.340Z,73.72
2019-02-22T09:55:42.126Z,73.77
2019-02-22T09:58:09.885Z,73.26
2019-02-22T10:00:37.641Z,73.69
2019-02-22T10:03:05.404Z,73.51
2019-02-22T10:05:33.145Z,72.82
2019-02-22T10:08:00.923Z,72.19
2019-02-22T10:10:28.676Z,72.67
2019-02-22T10:12:56.457Z,71.86
2019-02-22T10:15:24.277Z,71.97
2019-02-22T10:17:52.041Z,71.93
2019-02-22T10:20:19.854Z,71.98
2019-02-22T10:22:47.703Z,71.84
2019-02-22T10:25:15.561Z,72.05
2019-02-22T10:27:43.355Z,71.68
2019-02-22T10:30:11.158Z,72.27
2019-02-22T10:32:42.843Z,72.32
2019-02-22T10:35:11.718Z,72.32
2019-02-22T10:37:39.528Z,71.74
2019-02-22T10:40:07.461Z,71.79
2019-02-22T10:42:35.247Z,72.48
2019-02-22T10:45:03.267Z,71.96
2019-02-22T10:47:31.031Z,72.96
2019-02-22T10:49:58.838Z,72.92
2019-02-22T10:52:26.606Z,73.03
2019-02-22T10:54:54.357Z,72.47
2019-02-22T10:57:22.159Z,73.21
2019-02-22T10:59:49.942Z,73.06
2019-02-22T11:02:17.777Z,72.61
2019-02-22T11:04:45.540Z,72.51
2019-02-22T11:07:13.784Z,72.16
2019-02-22T11:09:41.576Z,71.78
2019-02-22T11:12:09.360Z,71.53
2019-02-22T11:14:37.165Z,70.82
2019-02-22T11:17:04.964Z,69.18
2019-02-22T11:19:32.777Z,69.33
2019-02-22T11:22:00.540Z,68.41
2019-02-22T11:24:28.373Z,68.34
2019-02-22T11:26:56.149Z,68.93
2019-02-22T11:29:23.911Z,68.40
2019-02-22T11:31:51.932Z,68.19
2019-02-22T11:34:19.692Z,68.47
2019-02-22T11:36:47.559Z,68.19
2019-02-22T11:39:15.331Z,68.31
2019-02-22T11:41:43.145Z,67.70
2019-02-22T11:44:12.282Z,68.46
2019-02-22T11:46:40.363Z,68.98
2019-02-22T11:49:08.140Z,68.64
2019-02-22T11:51:36.359Z,68.85
2019-02-22T11:54:04.103Z,68.48
2019-02-22T11:56:32.226Z,68.96
2019-02-22T11:59:00.027Z,68.60
2019-02-22T12:01:27.913Z,69.28
2019-02-22T12:03:55.778Z,68.64
2019-02-22T12:06:23.612Z,67.95
2019-02-22T12:08:51.469Z,67.92
2019-02-22T12:11:19.311Z,67.16
2019-02-22T12:13:47.147Z,67.97
2019-02-22T12:16:14.957Z,68.79
2019-02-22T12:18:42.767Z,68.90
2019-02-22T12:21:10.864Z,68.70
2019-02-22T12:23:38.658Z,68.87
2019-02-22T12:26:06.501Z,69.44
2019-02-22T12:28:34.230Z,68.99
2019-02-22T12:31:02.397Z,68.12
2019-02-22T12:33:31.342Z,68.22
2019-02-22T12:35:59.055Z,67.40
2019-02-22T12:38:28.250Z,67.50
2019-02-22T12:40:56.193Z,68.15
2019-02-22T12:43:23.967Z,68.56
2019-02-22T12:45:51.692Z,68.81
2019-02-22T12:48:19.499Z,69.69
2019-02-22T12:50:47.233Z,69.36
2019-02-22T12:53:15.015Z,68.60
2019-02-22T12:55:42.761Z,68.95
2019-02-22T12:58:10.851Z,68.83
2019-02-22T13:00:38.671Z,68.59
2019-02-22T13:03:06.438Z,67.64
2019-02-22T13:05:34.277Z,67.21
2019-02-22T13:08:02.056Z,68.20
2019-02-22T13:10:29.801Z,68.55
2019-02-22T13:12:57.581Z,68.93
2019-02-22T13:15:25.361Z,69.39
2019-02-22T13:17:53.175Z,69.71
2019-02-22T13:20:20.938Z,68.96
2019-02-22T13:22:48.774Z,68.63
2019-02-22T13:25:16.528Z,67.99
2019-02-22T13:27:44.372Z,67.90
2019-02-22T13:30:12.244Z,68.42
2019-02-22T13:32:40.025Z,68.39
2019-02-22T13:35:10.696Z,69.05
2019-02-22T13:37:37.804Z,69.03
2019-02-22T13:40:07.744Z,69.84
2019-02-22T13:42:35.640Z,69.60
2019-02-22T13:45:03.775Z,70.59
2019-02-22T13:47:31.570Z,70.83
2019-02-22T13:49:59.353Z,70.28
2019-02-22T13:52:27.207Z,69.93
2019-02-22T13:54:54.990Z,70.16
2019-02-22T13:57:22.814Z,70.08
2019-02-22T13:59:50.613Z,70.39
2019-02-22T14:02:19.764Z,71.01
2019-02-22T14:04:47.573Z,70.58
2019-02-22T14:07:15.356Z,71.69
2019-02-22T14:09:43.126Z,71.50
2019-02-22T14:12:10.955Z,71.81
2019-02-22T14:14:38.717Z,71.58
2019-02-22T14:17:06.482Z,71.02
2019-02-22T14:19:34.241Z,71.76
2019-02-22T14:22:02.026Z,71.29
2019-02-22T14:24:29.801Z,72.08
2019-02-22T14:26:57.579Z,71.65
2019-02-22T14:29:25.348Z,71.27
2019-02-22T14:31:53.157Z,71.53
2019-02-22T14:34:20.961Z,71.52
2019-02-22T14:36:48.852Z,71.52
2019-02-22T14:39:16.620Z,71.14
2019-02-22T14:41:45.564Z,71.16
2019-02-22T14:44:13.341Z,70.72
2019-02-22T14:46:41.130Z,70.05
2019-02-22T14:49:08.894Z,70.40
2019-02-22T14:51:36.628Z,71.37
2019-02-22T14:54:04.410Z,71.11
2019-02-22T14:56:32.176Z,71.73
2019-02-22T14:58:59.956Z,71.90
2019-02-22T15:01:27.716Z,71.48
2019-02-22T15:03:55.524Z,70.40
2019-02-22T15:06:23.310Z,70.72
2019-02-22T15:08:51.168Z,70.72
2019-02-22T15:11:19.018Z,71.08
2019-02-22T15:13:46.875Z,70.91
2019-02-22T15:16:32.977Z,70.88
2019-02-22T15:19:00.783Z,70.25
2019-02-22T15:21:28.551Z,70.40
2019-02-22T15:23:56.289Z,70.02
2019-02-22T15:26:24.060Z,70.80
2019-02-22T15:28:51.861Z,70.27
2019-02-22T15:31:19.598Z,70.23
2019-02-22T15:33:47.383Z,69.35
2019-02-22T15:36:16.102Z,68.01
2019-02-22T15:38:44.156Z,68.64
2019-02-22T15:41:12.005Z,68.04
2019-02-22T15:43:39.861Z,67.85
2019-02-22T15:46:12.134Z,67.46
2019-02-22T15:48:37.375Z,67.08
2019-02-22T15:51:07.251Z,66.90
2019-02-22T15:53:34.786Z,66.10
2019-02-22T15:56:02.573Z,65.29
2019-02-22T15:58:30.329Z,64.70
2019-02-22T16:00:58.105Z,65.10
2019-02-22T16:03:28.118Z,66.61
2019-02-22T16:05:55.913Z,67.15
2019-02-22T16:08:23.702Z,67.31
2019-02-22T16:10:51.486Z,67.57
2019-02-22T16:13:19.273Z,67.65
2019-02-22T16:15:47.204Z,68.63
2019-02-22T16:18:15.029Z,69.05
2019-02-22T16:20:42.843Z,69.18
2019-02-22T16:23:10.613Z,69.36
2019-02-22T16:25:38.452Z,69.64
2019-02-22T16:28:06.181Z,70.51
2019-02-22T16:30:35.393Z,70.75
2019-02-22T16:33:03.234Z,70.86
2019-02-22T16:35:31.001Z,70.52
2019-02-22T16:37:58.781Z,70.01
2019-02-22T16:40:26.544Z,70.48
2019-02-22T16:42:54.292Z,71.36
2019-02-22T16:45:22.198Z,71.12
2019-02-22T16:47:49.958Z,71.55
2019-02-22T16:50:17.713Z,72.00
2019-02-22T16:52:45.582Z,72.14
2019-02-22T16:55:13.874Z,71.61
2019-02-22T16:57:41.628Z,72.05
2019-02-22T17:00:11.567Z,71.99
2019-02-22T17:02:39.327Z,72.13
2019-02-22T17:05:08.976Z,72.19
2019-02-22T17:07:36.735Z,72.19
2019-02-22T17:10:05.391Z,72.39
2019-02-22T17:12:33.128Z,72.54
2019-02-22T17:15:01.045Z,71.95
2019-02-22T17:17:28.804Z,72.13
2019-02-22T17:19:56.581Z,71.99
2019-02-22T17:22:24.352Z,72.60
2019-02-22T17:24:52.301Z,72.81
2019-02-22T17:27:20.089Z,72.06
2019-02-22T17:29:47.835Z,72.01
2019-02-22T17:32:15.612Z,72.80
2019-02-22T17:34:45.477Z,72.87
2019-02-22T17:37:13.386Z,73.16
2019-02-22T17:39:41.294Z,73.07
2019-02-22T17:42:09.249Z,73.53
2019-02-22T17:44:37.019Z,73.83
2019-02-22T17:47:06.578Z,73.92
2019-02-22T17:49:34.670Z,73.81
2019-02-22T17:52:02.599Z,73.86
2019-02-22T17:54:30.362Z,73.66
2019-02-22T17:56:58.167Z,74.10
2019-02-22T17:59:28.304Z,74.08
2019-02-22T18:01:56.253Z,74.02
2019-02-22T18:04:24.045Z,74.26
2019-02-22T18:06:51.991Z,74.06
2019-02-22T18:09:19.967Z,74.50
2019-02-22T18:11:47.880Z,74.53
2019-02-22T18:14:15.660Z,74.31
2019-02-22T18:16:44.576Z,74.25
2019-02-22T18:19:12.320Z,74.34
2019-02-22T18:21:40.054Z,74.75
2019-02-22T18:24:07.863Z,74.91
2019-02-22T18:26:37.683Z,74.50
2019-02-22T18:29:05.290Z,74.00
2019-02-22T18:31:33.182Z,74.31
2019-02-22T18:34:00.938Z,74.38
2019-02-22T18:36:28.764Z,74.59
2019-02-22T18:38:56.577Z,74.62
2019-02-22T18:41:24.343Z,74.47
2019-02-22T18:43:52.106Z,74.20
2019-02-22T18:46:20.303Z,74.51
2019-02-22T18:48:48.016Z,75.04
2019-02-22T18:51:15.855Z,75.47
2019-02-22T18:53:43.588Z,75.23
2019-02-22T18:56:11.385Z,75.35
2019-02-22T18:58:39.144Z,74.99
2019-02-22T19:01:06.954Z,74.16
2019-02-22T19:03:34.701Z,74.36
2019-02-22T19:06:02.513Z,74.00
2019-02-22T19:08:32.637Z,74.48
2019-02-22T19:11:00.635Z,74.89
2019-02-22T19:13:28.429Z,74.47
2019-02-22T19:15:56.175Z,74.19
2019-02-22T19:18:23.960Z,74.35
2019-02-22T19:20:51.779Z,73.80
2019-02-22T19:23:19.542Z,74.59
2019-02-22T19:25:47.355Z,74.40
2019-02-22T19:28:15.871Z,73.70
2019-02-22T19:30:43.681Z,73.52
2019-02-22T19:33:11.432Z,73.81
2019-02-22T19:35:39.238Z,73.60
2019-02-22T19:38:07.002Z,74.20
2019-02-22T19:40:34.814Z,74.85
2019-02-22T19:43:02.596Z,75.35
2019-02-22T19:45:30.374Z,75.07
2019-02-22T19:47:58.184Z,75.28
2019-02-22T19:50:26.009Z,75.86
2019-02-22T19:52:53.790Z,76.15
2019-02-22T19:55:21.680Z,76.63
2019-02-22T19:57:49.456Z,76.84
2019-02-22T20:00:17.241Z,77.17
2019-02-22T20:02:45.073Z,77.56
2019-02-22T20:05:13.076Z,78.58
2019-02-22T20:07:42.522Z,78.56
2019-02-22T20:10:17.890Z,78.81
2019-02-22T20:12:41.860Z,78.89
2019-02-22T20:15:11.657Z,78.84
2019-02-22T20:17:40.334Z,78.67
2019-02-22T20:20:10.961Z,79.09
2019-02-22T20:22:39.624Z,79.32
2019-02-22T20:25:07.484Z,79.44
2019-02-22T20:27:35.335Z,79.88
2019-02-22T20:30:03.299Z,80.15
2019-02-22T20:32:31.141Z,80.31
2019-02-22T20:34:58.966Z,80.16
2019-02-22T20:37:26.776Z,80.26
2019-02-22T20:39:54.613Z,80.18
2019-02-22T20:42:22.477Z,80.17
2019-02-22T20:44:50.272Z,80.25
2019-02-22T20:47:18.152Z,80.46
2019-02-22T20:49:45.981Z,80.49
2019-02-22T20:52:13.853Z,80.70
2019-02-22T20:54:41.652Z,81.29
2019-02-22T20:57:09.453Z,81.50
2019-02-22T20:59:37.359Z,81.13
2019-02-22T21:02:05.180Z,80.70
2019-02-22T21:04:32.989Z,79.97
2019-02-22T21:07:00.798Z,79.98
2019-02-22T21:09:28.634Z,80.09
2019-02-22T21:11:57.163Z,79.88
2019-02-22T21:14:25.027Z,79.54
2019-02-22T21:16:52.861Z,79.45
2019-02-22T21:19:20.709Z,79.80
2019-02-22T21:21:48.502Z,80.27
2019-02-22T21:24:16.311Z,80.13
2019-02-22T21:26:44.117Z,80.28
2019-02-22T21:29:11.934Z,79.64
2019-02-22T21:31:39.825Z,79.59
2019-02-22T21:34:07.641Z,79.81
2019-02-22T21:36:35.438Z,79.26
2019-02-22T21:39:03.840Z,78.15
2019-02-22T21:41:31.612Z,77.63
2019-02-22T21:43:59.410Z,77.17
2019-02-22T21:46:28.870Z,76.90
2019-02-22T21:48:56.773Z,76.18
2019-02-22T21:51:24.524Z,75.03
2019-02-22T21:53:52.312Z,74.69
2019-02-22T21:56:20.084Z,73.92
2019-02-22T21:58:48.855Z,73.43
2019-02-22T22:01:16.852Z,73.37
2019-02-22T22:03:44.618Z,72.75
2019-02-22T22:06:12.434Z,72.53
2019-02-22T22:08:40.218Z,73.01
2019-02-22T22:11:08.040Z,73.67
2019-02-22T22:13:35.837Z,73.59
2019-02-22T22:16:03.671Z,72.90
2019-02-22T22:18:38.508Z,72.76
2019-02-22T22:21:01.179Z,72.77
2019-02-22T22:23:28.967Z,72.24
2019-02-22T22:25:56.738Z,71.91
2019-02-22T22:28:24.525Z,72.17
2019-02-22T22:30:52.341Z,72.12
2019-02-22T22:33:20.116Z,72.27
2019-02-22T22:35:47.908Z,72.47
2019-02-22T22:38:15.695Z,71.96
2019-02-22T22:40:43.463Z,71.97
2019-02-22T22:43:11.686Z,72.98
2019-02-22T22:45:39.517Z,72.91
2019-02-22T22:48:07.291Z,72.69
2019-02-22T22:50:35.064Z,72.84
2019-02-22T22:53:02.845Z,73.15
2019-02-22T22:55:30.632Z,72.74
2019-02-22T22:57:58.401Z,71.55
2019-02-22T23:00:46.639Z,71.77
2019-02-22T23:03:14.526Z,71.93
2019-02-22T23:05:42.325Z,71.57
2019-02-22T23:08:10.077Z,71.61
2019-02-22T23:10:37.886Z,71.96
2019-02-22T23:13:05.632Z,72.47
2019-02-22T23:15:33.424Z,72.72
2019-02-22T23:18:01.196Z,72.70
2019-02-22T23:20:28.971Z,72.57
2019-02-22T23:22:56.717Z,73.04
2019-02-22T23:25:24.519Z,73.47
2019-02-22T23:27:52.277Z,73.50
2019-02-22T23:30:20.002Z,72.81
2019-02-22T23:32:47.796Z,73.21
2019-02-22T23:35:15.550Z,73.36
2019-02-22T23:37:43.394Z,73.40
2019-02-22T23:40:11.171Z,73.63
2019-02-22T23:42:38.968Z,73.16
2019-02-22T23:45:06.794Z,73.28
2019-02-22T23:47:34.644Z,73.00
2019-02-22T23:50:02.473Z,73.45
2019-02-22T23:52:30.272Z,72.89
2019-02-22T23:54:58.008Z,73.26
2019-02-22T23:57:26.566Z,73.51
2019-02-22T23:59:54.306Z,73.81
